Time;durP1;ratioP1;P1;durP2;ratioP2;P2;SDS_P1;SDS_P2;PMS_P1;PMS_P2;Temp;Humidity;BMP_temperature;BMP_pressure;BME280_temperature;BME280_humidity;BME280_pressure;Samples;Min_cycle;Max_cycle;Signal;HPM_P1;HPM_P2
2022/03/15 00:01:30;;;;;;;3.60;1.10;;;;;;;13.09;63.79;101217.25;5031273;28;20567;-84
2022/03/15 00:03:59;;;;;;;2.60;1.08;;;;;;;13.00;64.29;101222.22;5033594;28;20479;-83
2022/03/15 00:06:27;;;;;;;2.58;1.13;;;;;;;12.89;66.18;101219.31;5032349;28;20610;-81
2022/03/15 00:08:56;;;;;;;3.85;1.42;;;;;;;12.76;66.13;101214.66;5031099;28;20115;-82
2022/03/15 00:11:24;;;;;;;3.30;0.95;;;;;;;12.64;67.23;101222.06;5030867;28;20116;-89
2022/03/15 00:13:54;;;;;;;2.35;1.23;;;;;;;12.56;69.29;101229.66;5035724;28;20503;-85
2022/03/15 00:16:23;;;;;;;4.03;0.90;;;;;;;12.44;71.92;101218.88;5031163;28;20498;-85
2022/03/15 00:18:52;;;;;;;4.80;1.10;;;;;;;12.23;73.31;101220.03;5030829;28;20046;-84
2022/03/15 00:21:21;;;;;;;1.77;1.15;;;;;;;12.11;74.13;101220.53;5031793;28;20049;-80
2022/03/15 00:23:49;;;;;;;2.47;1.00;;;;;;;11.98;73.44;101222.69;5035327;28;20046;-78
2022/03/15 00:26:18;;;;;;;4.35;1.33;;;;;;;11.89;75.28;101231.97;5010469;28;20050;-82
2022/03/15 00:28:46;;;;;;;7.55;1.95;;;;;;;11.78;77.36;101235.88;5011129;28;20053;-81
2022/03/15 00:31:17;;;;;;;4.60;1.20;;;;;;;11.67;78.41;101232.06;5009903;28;20065;-78
2022/03/15 00:33:45;;;;;;;4.05;1.05;;;;;;;11.52;79.56;101233.34;5010251;28;20566;-80
2022/03/15 00:36:15;;;;;;;8.88;1.77;;;;;;;11.30;76.14;101247.25;5010659;28;20112;-80
2022/03/15 00:38:44;;;;;;;4.03;1.10;;;;;;;11.22;79.69;101242.63;5010487;28;20484;-80
2022/03/15 00:41:12;;;;;;;4.53;0.95;;;;;;;11.06;75.69;101242.13;5021008;28;20045;-84
2022/03/15 00:43:41;;;;;;;7.43;1.38;;;;;;;10.89;76.45;101240.63;5030491;28;20558;-79
2022/03/15 00:46:09;;;;;;;1.85;1.13;;;;;;;10.79;79.09;101241.09;5031524;28;20045;-82
2022/03/15 00:48:39;;;;;;;4.18;1.50;;;;;;;10.69;80.92;101233.00;5035886;28;20053;-82
2022/03/15 00:51:08;;;;;;;1.85;0.70;;;;;;;10.53;85.39;101217.75;5036322;28;20104;-83
2022/03/15 00:53:36;;;;;;;2.17;0.70;;;;;;;10.48;88.39;101215.00;5037159;28;20046;-90
2022/03/15 00:56:06;;;;;;;3.25;1.15;;;;;;;10.43;92.17;101218.25;5032459;28;20577;-81
2022/03/15 00:58:34;;;;;;;3.17;0.90;;;;;;;10.39;96.22;101211.19;5030566;28;20061;-84
2022/03/15 01:01:03;;;;;;;2.83;0.90;;;;;;;10.36;100.00;101206.78;5032720;28;20131;-74
2022/03/15 01:03:32;;;;;;;4.05;0.98;;;;;;;10.34;100.00;101199.78;5030327;28;20049;-80
2022/03/15 01:06:02;;;;;;;1.88;0.73;;;;;;;10.32;100.00;101191.97;5031553;28;20196;-82
2022/03/15 01:08:31;;;;;;;1.55;0.88;;;;;;;10.27;100.00;101178.81;5029128;28;20499;-82
2022/03/15 01:11:00;;;;;;;4.57;1.05;;;;;;;10.29;100.00;101178.06;5020826;28;20303;-82
2022/03/15 01:13:28;;;;;;;4.88;0.98;;;;;;;10.26;100.00;101160.66;5029073;28;20056;-83
2022/03/15 01:15:57;;;;;;;4.65;0.85;;;;;;;10.21;100.00;101147.56;5029902;28;20104;-83
2022/03/15 01:18:25;;;;;;;1.35;0.63;;;;;;;10.21;100.00;101146.69;5029679;28;20135;-81
2022/03/15 01:20:55;;;;;;;2.15;0.52;;;;;;;10.18;100.00;101142.28;5029816;28;20060;-81
2022/03/15 01:23:25;;;;;;;4.30;1.13;;;;;;;10.20;100.00;101139.75;5028946;28;20057;-83
2022/03/15 01:25:54;;;;;;;4.93;0.98;;;;;;;10.14;100.00;101130.06;5029180;28;20144;-83
2022/03/15 01:28:22;;;;;;;4.78;0.95;;;;;;;10.09;100.00;101129.00;5028650;28;20053;-84
2022/03/15 01:30:51;;;;;;;4.60;1.05;;;;;;;10.08;100.00;101129.84;5029221;28;20045;-82
2022/03/15 01:33:20;;;;;;;1.60;0.85;;;;;;;10.05;100.00;101124.53;5028476;28;20063;-83
2022/03/15 01:35:48;;;;;;;2.70;0.90;;;;;;;10.06;100.00;101119.44;5029628;28;20068;-88
2022/03/15 01:45:21;;;;;;;3.25;0.98;;;;;;;9.90;100.00;101116.22;5029135;28;20050;-83
2022/03/15 01:48:04;;;;;;;4.68;0.70;;;;;;;9.88;100.00;101115.28;5047604;28;20060;-84
2022/03/15 01:51:07;;;;;;;2.40;0.88;;;;;;;9.90;100.00;101104.19;5042843;28;20053;-83
2022/03/15 01:53:46;;;;;;;6.07;1.38;;;;;;;9.94;100.00;101094.81;5038386;28;20109;-83
2022/03/15 01:56:55;;;;;;;2.65;0.93;;;;;;;9.98;100.00;101096.69;5038421;28;20052;-84
2022/03/15 01:59:35;;;;;;;4.80;1.20;;;;;;;9.99;100.00;101119.16;5034850;28;20057;-82
2022/03/15 02:02:05;;;;;;;3.70;1.00;;;;;;;10.01;100.00;101120.97;5031221;28;20128;-85
2022/03/15 02:04:34;;;;;;;2.60;1.02;;;;;;;10.04;100.00;101127.97;5033849;28;20049;-82
2022/03/15 02:07:04;;;;;;;6.88;1.40;;;;;;;10.04;100.00;101127.97;5032378;28;20160;-83
2022/03/15 02:09:33;;;;;;;11.02;2.00;;;;;;;10.08;100.00;101127.25;5031974;28;20099;-83
2022/03/15 02:12:04;;;;;;;8.50;1.35;;;;;;;10.11;100.00;101124.78;5021802;28;20046;-84
2022/03/15 02:14:32;;;;;;;7.35;1.67;;;;;;;10.12;100.00;101126.53;5032665;28;20046;-84
2022/03/15 02:17:01;;;;;;;2.80;1.08;;;;;;;10.14;100.00;101126.59;5034281;28;20045;-84
2022/03/15 02:19:29;;;;;;;6.03;1.75;;;;;;;10.14;100.00;101119.72;5034392;28;20104;-79
2022/03/15 02:21:59;;;;;;;8.32;1.65;;;;;;;10.16;100.00;101120.66;5033525;28;20499;-82
2022/03/15 02:24:28;;;;;;;5.25;1.85;;;;;;;10.17;100.00;101109.50;5034440;28;20049;-85
2022/03/15 02:26:57;;;;;;;8.27;1.85;;;;;;;10.19;100.00;101112.13;5033573;28;20053;-85
2022/03/15 02:29:25;;;;;;;2.75;1.48;;;;;;;10.20;100.00;101119.94;5032673;28;20050;-85
2022/03/15 02:31:54;;;;;;;4.20;1.45;;;;;;;10.21;100.00;101107.88;5032363;28;20049;-84
2022/03/15 02:34:22;;;;;;;3.70;1.75;;;;;;;10.20;100.00;101103.56;5032323;28;20064;-84
2022/03/15 02:36:51;;;;;;;3.15;1.85;;;;;;;10.19;100.00;101106.94;5031709;28;20116;-85
2022/03/15 02:39:21;;;;;;;3.45;1.55;;;;;;;10.19;100.00;101104.38;5033164;28;20132;-85
2022/03/15 02:41:50;;;;;;;4.80;1.30;;;;;;;10.18;100.00;101107.78;5033643;28;20096;-84
2022/03/15 02:44:18;;;;;;;4.28;1.52;;;;;;;10.17;100.00;101112.09;5039529;28;20304;-86
2022/03/15 02:46:50;;;;;;;6.13;1.88;;;;;;;10.18;100.00;101111.25;5040733;28;20045;-85
2022/03/15 02:49:19;;;;;;;8.13;1.80;;;;;;;10.18;100.00;101111.25;5040780;28;20104;-85
2022/03/15 02:51:47;;;;;;;5.22;1.63;;;;;;;10.18;100.00;101116.41;5036280;28;20057;-85
2022/03/15 02:54:16;;;;;;;4.38;1.90;;;;;;;10.18;100.00;101110.38;5039811;28;20045;-84
2022/03/15 02:56:47;;;;;;;5.45;3.05;;;;;;;10.17;100.00;101104.31;5048228;28;20057;-84
2022/03/15 02:59:15;;;;;;;3.65;2.08;;;;;;;10.17;100.00;101101.75;5043304;28;20431;-85
2022/03/15 03:01:44;;;;;;;7.38;2.45;;;;;;;10.16;100.00;101097.38;5042397;28;20068;-85
2022/03/15 03:04:14;;;;;;;6.25;2.38;;;;;;;10.07;100.00;101092.75;5037525;28;20045;-86
2022/03/15 03:06:44;;;;;;;4.18;1.67;;;;;;;9.99;100.00;101095.91;5039225;28;20049;-85
2022/03/15 03:09:13;;;;;;;4.25;1.90;;;;;;;9.95;100.00;101091.44;5029441;28;20092;-86
2022/03/15 03:11:44;;;;;;;5.50;1.80;;;;;;;9.92;100.00;101097.38;5027327;28;20060;-85
2022/03/15 03:14:14;;;;;;;6.22;2.03;;;;;;;9.88;100.00;101087.72;5030253;28;20108;-83
2022/03/15 03:16:42;;;;;;;2.08;1.02;;;;;;;9.88;100.00;101084.28;5033593;28;20053;-85
2022/03/15 03:19:11;;;;;;;5.25;2.17;;;;;;;9.86;100.00;101077.31;5032518;28;20057;-85
2022/03/15 03:21:40;;;;;;;3.97;1.40;;;;;;;9.91;100.00;101076.63;5050321;28;20146;-84
2022/03/15 03:24:09;;;;;;;6.40;1.83;;;;;;;9.90;100.00;101077.47;5050606;28;20053;-84
2022/03/15 03:26:40;;;;;;;4.72;1.83;;;;;;;9.92;100.00;101088.72;5053127;28;20565;-85
2022/03/15 03:29:10;;;;;;;4.30;1.40;;;;;;;9.95;100.00;101096.59;5053192;28;20589;-84
2022/03/15 03:31:44;;;;;;;3.38;1.92;;;;;;;9.99;100.00;101098.47;5054088;28;20052;-85
2022/03/15 03:34:13;;;;;;;6.25;2.28;;;;;;;10.00;100.00;101095.94;5062010;28;20064;-85
2022/03/15 03:36:42;;;;;;;4.20;1.67;;;;;;;10.01;100.00;101097.72;5062055;28;20060;-86
2022/03/15 03:39:11;;;;;;;4.65;1.98;;;;;;;10.02;100.00;101101.16;5066413;28;20110;-86
2022/03/15 03:41:40;;;;;;;4.13;1.35;;;;;;;10.03;100.00;101100.34;5044166;28;20049;-84
2022/03/15 03:44:09;;;;;;;5.35;1.80;;;;;;;10.02;100.00;101103.75;5059451;28;20087;-87
2022/03/15 03:46:37;;;;;;;3.53;1.58;;;;;;;9.99;100.00;101109.69;5057960;28;20464;-88
2022/03/15 03:49:07;;;;;;;3.70;1.75;;;;;;;9.96;100.00;101109.56;5056980;28;20085;-86
2022/03/15 03:51:36;;;;;;;4.20;1.67;;;;;;;9.93;100.00;101118.91;5043925;28;20107;-85
2022/03/15 03:54:05;;;;;;;4.72;1.65;;;;;;;9.94;100.00;101115.50;5057760;28;20048;-85
2022/03/15 03:56:33;;;;;;;4.05;1.45;;;;;;;9.96;100.00;101119.03;5057092;28;20057;-85
2022/03/15 03:59:02;;;;;;;5.50;1.55;;;;;;;10.00;100.00;101113.16;5060626;28;20080;-85
2022/03/15 04:01:30;;;;;;;6.75;2.33;;;;;;;10.01;100.00;101112.31;5056920;28;20498;-83
2022/03/15 04:04:05;;;;;;;3.90;1.92;;;;;;;9.99;100.00;101116.56;5056069;28;20236;-85
2022/03/15 04:06:35;;;;;;;3.25;1.65;;;;;;;9.96;100.00;101114.72;5055432;28;20123;-84
2022/03/15 04:09:05;;;;;;;4.18;1.55;;;;;;;9.92;100.00;101101.63;5056113;28;20072;-84
2022/03/15 04:11:34;;;;;;;4.18;2.15;;;;;;;9.89;100.00;101096.34;5057348;28;20049;-86
2022/03/15 04:14:03;;;;;;;8.35;2.70;;;;;;;9.88;100.00;101094.59;5062444;28;20045;-79
2022/03/15 04:16:32;;;;;;;6.25;2.75;;;;;;;9.85;100.00;101096.25;5052269;28;20132;-83
2022/03/15 04:19:01;;;;;;;5.35;2.78;;;;;;;9.84;100.00;101104.81;5059158;28;20060;-88
2022/03/15 04:21:29;;;;;;;5.43;2.67;;;;;;;9.85;100.00;101116.06;5041911;28;20124;-88
2022/03/15 04:23:59;;;;;;;8.65;2.65;;;;;;;9.88;100.00;101125.63;5036742;28;20053;-88
2022/03/15 04:26:28;;;;;;;4.32;1.80;;;;;;;9.86;100.00;101123.84;5033439;28;20096;-84
2022/03/15 04:28:57;;;;;;;3.75;1.25;;;;;;;9.70;100.00;101108.56;5039271;28;20546;-86
2022/03/15 04:31:26;;;;;;;5.25;2.17;;;;;;;9.75;100.00;101119.09;5057858;28;20049;-86
2022/03/15 04:33:54;;;;;;;4.13;1.45;;;;;;;9.76;100.00;101118.28;5055793;28;21394;-86
2022/03/15 04:36:23;;;;;;;3.30;1.45;;;;;;;9.75;100.00;101114.81;5054884;28;20045;-83
2022/03/15 04:38:51;;;;;;;5.55;1.60;;;;;;;9.75;100.00;101119.97;5059320;28;20053;-85
2022/03/15 04:41:21;;;;;;;4.88;1.40;;;;;;;9.77;100.00;101112.28;5058652;28;20068;-84
2022/03/15 04:43:50;;;;;;;3.53;2.35;;;;;;;9.81;100.00;101098.66;5052304;28;20041;-84
2022/03/15 04:46:18;;;;;;;7.28;1.95;;;;;;;9.80;100.00;101087.44;5053394;28;20045;-87
2022/03/15 04:48:47;;;;;;;4.43;1.35;;;;;;;9.79;100.00;101101.19;5053475;28;20467;-86
2022/03/15 04:51:15;;;;;;;3.30;1.35;;;;;;;9.79;100.00;101108.94;5053852;28;20064;-85
2022/03/15 04:53:44;;;;;;;1.88;1.23;;;;;;;9.84;100.00;101114.28;5053086;28;20126;-86
2022/03/15 04:56:12;;;;;;;4.43;1.60;;;;;;;9.85;100.00;101114.34;5050772;28;20041;-87
2022/03/15 04:58:42;;;;;;;2.25;1.08;;;;;;;9.84;100.00;101097.06;5055033;28;20110;-87
2022/03/15 05:01:11;;;;;;;5.40;1.50;;;;;;;9.90;100.00;101108.47;5050671;28;20041;-88
2022/03/15 05:03:39;;;;;;;5.60;1.63;;;;;;;9.92;100.00;101110.28;5052409;28;20132;-84
2022/03/15 05:06:09;;;;;;;3.70;1.48;;;;;;;9.94;100.00;101131.00;5057164;28;20083;-86
2022/03/15 05:08:38;;;;;;;3.30;1.35;;;;;;;9.94;100.00;101126.75;5054786;28;20075;-87
2022/03/15 05:11:08;;;;;;;6.82;1.67;;;;;;;9.95;100.00;101123.31;5052478;28;20077;-85
2022/03/15 05:13:48;;;;;;;3.22;1.25;;;;;;;9.94;100.00;101137.09;5045447;28;20049;-86
2022/03/15 05:16:19;;;;;;;3.33;1.63;;;;;;;9.97;100.00;101136.31;5054736;28;20049;-88
2022/03/15 05:18:49;;;;;;;4.88;1.40;;;;;;;9.98;100.00;101138.06;5051988;28;20052;-86
2022/03/15 05:21:32;;;;;;;3.22;1.67;;;;;;;10.00;100.00;101123.50;5049403;28;20088;-88
2022/03/15 05:24:00;;;;;;;4.13;1.60;;;;;;;10.00;100.00;101116.63;5034121;28;20080;-86
2022/03/15 05:26:29;;;;;;;2.38;1.15;;;;;;;10.01;100.00;101112.31;5030017;28;20038;-87
2022/03/15 05:28:59;;;;;;;5.88;2.03;;;;;;;9.99;100.00;101114.88;5031624;28;20046;-87
2022/03/15 05:31:29;;;;;;;7.25;1.92;;;;;;;9.98;100.00;101107.03;5031244;28;20072;-88
2022/03/15 05:33:57;;;;;;;6.78;1.83;;;;;;;9.98;100.00;101113.09;5029729;28;20577;-87
2022/03/15 05:36:25;;;;;;;3.53;1.65;;;;;;;9.99;100.00;101114.00;5031812;28;20107;-87
2022/03/15 05:38:54;;;;;;;3.08;1.60;;;;;;;10.01;100.00;101118.38;5032302;28;20089;-87
2022/03/15 05:41:23;;;;;;;4.13;1.55;;;;;;;10.02;100.00;101119.25;5040315;28;20049;-88
2022/03/15 05:43:51;;;;;;;3.92;1.67;;;;;;;10.03;100.00;101116.75;5055124;28;20044;-87
2022/03/15 05:46:21;;;;;;;3.55;2.00;;;;;;;10.05;100.00;101114.19;5063784;28;20067;-87
2022/03/15 05:48:50;;;;;;;6.70;1.35;;;;;;;10.04;100.00;101107.28;5054370;28;20109;-83
2022/03/15 05:51:18;;;;;;;5.53;1.95;;;;;;;10.01;100.00;101101.97;5053826;28;20114;-81
2022/03/15 05:53:47;;;;;;;4.90;1.52;;;;;;;9.99;100.00;101088.13;5038655;28;20053;-84
2022/03/15 05:56:15;;;;;;;6.57;1.65;;;;;;;9.99;100.00;101082.97;5045281;28;20116;-80
2022/03/15 05:58:44;;;;;;;3.70;1.60;;;;;;;9.99;100.00;101094.19;5048642;28;20052;-80
2022/03/15 06:01:12;;;;;;;1.60;1.10;;;;;;;9.97;100.00;101088.06;5048833;28;20084;-80
2022/03/15 06:03:43;;;;;;;4.35;1.70;;;;;;;9.98;100.00;101091.53;5048220;28;20090;-80
2022/03/15 06:06:11;;;;;;;2.47;1.70;;;;;;;9.96;100.00;101088.00;5048893;28;20128;-81
2022/03/15 06:08:39;;;;;;;4.90;1.80;;;;;;;9.92;100.00;101087.03;5033780;28;20045;-81
2022/03/15 06:11:08;;;;;;;3.55;1.42;;;;;;;9.89;100.00;101088.59;5038650;28;20104;-82
2022/03/15 06:13:36;;;;;;;6.57;1.98;;;;;;;9.88;100.00;101085.16;5047384;28;20110;-81
2022/03/15 06:16:05;;;;;;;7.40;1.85;;;;;;;9.85;100.00;101080.75;5048368;28;20053;-81
2022/03/15 06:18:34;;;;;;;4.05;1.60;;;;;;;9.85;100.00;101079.88;5048399;28;20049;-79
2022/03/15 06:21:04;;;;;;;5.28;2.22;;;;;;;9.84;100.00;101078.09;5040500;28;20066;-80
2022/03/15 06:23:33;;;;;;;3.65;1.42;;;;;;;9.81;100.00;101078.88;5027713;28;20085;-81
2022/03/15 06:26:01;;;;;;;3.65;1.98;;;;;;;9.78;100.00;101068.41;5048669;28;20084;-80
2022/03/15 06:28:30;;;;;;;8.00;2.08;;;;;;;9.79;100.00;101070.16;5048651;28;20191;-83
2022/03/15 06:30:58;;;;;;;4.03;1.83;;;;;;;9.82;100.00;101069.41;5048392;28;20041;-81
2022/03/15 06:33:27;;;;;;;7.32;2.55;;;;;;;9.83;100.00;101056.53;5048154;28;20045;-82
2022/03/15 06:35:55;;;;;;;3.95;2.08;;;;;;;9.84;100.00;101066.03;5047613;28;20091;-81
2022/03/15 06:38:26;;;;;;;5.97;1.95;;;;;;;9.89;100.00;101070.50;5047852;28;20055;-81
2022/03/15 06:40:54;;;;;;;6.82;2.58;;;;;;;9.92;100.00;101062.84;5048287;28;20080;-80
2022/03/15 06:43:23;;;;;;;4.60;2.17;;;;;;;9.93;100.00;101059.47;5047081;28;20077;-82
2022/03/15 06:45:52;;;;;;;4.22;1.83;;;;;;;9.94;100.00;101049.19;5048725;28;20049;-80
2022/03/15 06:48:20;;;;;;;3.67;1.80;;;;;;;9.95;100.00;101047.47;5051322;28;20045;-82
2022/03/15 06:50:49;;;;;;;7.95;2.40;;;;;;;9.96;100.00;101052.69;5048881;28;20184;-84
2022/03/15 06:53:18;;;;;;;3.88;1.77;;;;;;;9.98;100.00;101050.16;5048260;28;20471;-80
2022/03/15 06:55:48;;;;;;;2.05;1.33;;;;;;;10.00;100.00;101056.28;5048678;28;20045;-81
2022/03/15 06:58:17;;;;;;;6.20;1.63;;;;;;;10.01;100.00;101051.19;5050043;28;20045;-81
2022/03/15 07:00:47;;;;;;;4.32;1.95;;;;;;;10.02;100.00;101036.53;5051887;28;20051;-84
2022/03/15 07:03:19;;;;;;;2.92;1.60;;;;;;;10.00;100.00;101054.56;5051858;28;20124;-79
2022/03/15 07:05:47;;;;;;;5.00;1.60;;;;;;;10.01;100.00;101046.00;5051892;28;20102;-82
2022/03/15 07:08:15;;;;;;;5.10;1.73;;;;;;;10.01;100.00;101039.94;5051412;28;20396;-80
2022/03/15 07:10:44;;;;;;;3.40;1.77;;;;;;;10.01;100.00;101037.34;5051217;28;20048;-80
2022/03/15 07:13:14;;;;;;;6.22;1.73;;;;;;;10.03;100.00;101031.44;5039545;28;20084;-79
2022/03/15 07:15:43;;;;;;;2.28;1.13;;;;;;;10.01;100.00;101016.66;5051618;28;20080;-81
2022/03/15 07:18:11;;;;;;;7.53;1.75;;;;;;;10.00;100.00;101012.34;5051327;28;20048;-80
2022/03/15 07:20:40;;;;;;;3.53;1.33;;;;;;;10.01;100.00;101014.06;5046489;28;20104;-81
2022/03/15 07:23:08;;;;;;;3.30;1.40;;;;;;;10.04;100.00;101014.22;5031268;28;20045;-82
2022/03/15 07:25:37;;;;;;;6.53;1.70;;;;;;;10.06;100.00;101017.72;5031387;28;20491;-82
2022/03/15 07:28:06;;;;;;;1.88;1.17;;;;;;;10.07;100.00;101020.34;5031886;28;20496;-80
2022/03/15 07:30:36;;;;;;;1.60;1.02;;;;;;;10.05;100.00;101015.94;5031311;28;20049;-81
2022/03/15 07:33:05;;;;;;;4.32;1.30;;;;;;;10.12;100.00;101012.75;5031114;28;20503;-81
2022/03/15 07:35:33;;;;;;;4.35;1.17;;;;;;;10.16;100.00;101011.16;5031077;28;20049;-79
2022/03/15 07:38:01;;;;;;;3.67;1.30;;;;;;;10.20;100.00;101013.03;5031386;28;20115;-79
2022/03/15 07:40:31;;;;;;;4.50;1.38;;;;;;;10.22;100.00;101012.28;5027494;28;20538;-83
2022/03/15 07:43:00;;;;;;;1.42;1.05;;;;;;;10.23;100.00;101016.59;5021896;28;20060;-84
2022/03/15 07:45:28;;;;;;;2.50;1.20;;;;;;;10.25;100.00;101020.13;5032580;28;20041;-79
2022/03/15 07:47:58;;;;;;;4.30;1.30;;;;;;;10.29;100.00;101021.16;5033057;28;20471;-81
2022/03/15 07:50:27;;;;;;;2.83;1.30;;;;;;;10.33;100.00;101012.69;5042706;28;20049;-83
2022/03/15 07:52:55;;;;;;;2.40;1.20;;;;;;;10.35;100.00;101017.91;5050675;28;20053;-85
2022/03/15 07:55:24;;;;;;;2.58;1.35;;;;;;;10.37;100.00;101017.13;5050906;28;20126;-85
2022/03/15 07:57:52;;;;;;;3.78;1.52;;;;;;;10.38;100.00;101015.44;5050957;28;20510;-83
2022/03/15 08:00:21;;;;;;;3.58;1.35;;;;;;;10.42;100.00;101012.09;5050731;28;20087;-83
2022/03/15 08:02:51;;;;;;;3.50;1.30;;;;;;;10.41;100.00;101012.94;5050972;28;20142;-82
2022/03/15 08:05:22;;;;;;;3.78;1.13;;;;;;;10.41;100.00;101005.19;5050582;28;20053;-85
2022/03/15 08:07:51;;;;;;;4.57;1.48;;;;;;;10.43;100.00;101013.88;5051236;28;20037;-83
2022/03/15 08:10:23;;;;;;;3.55;1.08;;;;;;;10.44;100.00;101006.16;5049411;28;20045;-85
2022/03/15 08:12:51;;;;;;;7.10;1.25;;;;;;;10.47;100.00;101006.28;5050074;28;20358;-85
2022/03/15 08:15:20;;;;;;;2.40;1.10;;;;;;;10.50;100.00;101010.66;5052347;28;20088;-85
2022/03/15 08:17:48;;;;;;;5.07;1.35;;;;;;;10.50;100.00;101012.38;5050532;28;20045;-81
2022/03/15 08:20:19;;;;;;;2.60;1.42;;;;;;;10.46;100.00;100998.44;5051150;28;20060;-83
2022/03/15 08:22:50;;;;;;;5.43;1.20;;;;;;;10.54;100.00;101022.00;5050347;28;20045;-82
2022/03/15 08:25:18;;;;;;;1.35;0.90;;;;;;;10.54;100.00;101011.66;5049960;28;20049;-80
2022/03/15 08:27:47;;;;;;;3.47;1.17;;;;;;;10.57;100.00;101016.94;5050793;28;20057;-81
2022/03/15 08:30:15;;;;;;;2.58;1.35;;;;;;;10.58;100.00;101024.75;5049309;28;20379;-81
2022/03/15 08:32:44;;;;;;;2.20;1.13;;;;;;;10.62;100.00;101024.00;5050171;28;20487;-82
2022/03/15 08:35:12;;;;;;;4.15;1.35;;;;;;;10.64;100.00;101029.25;5050159;28;20045;-80
2022/03/15 08:37:42;;;;;;;2.25;1.05;;;;;;;10.65;100.00;101026.72;5050386;28;20079;-82
2022/03/15 08:40:13;;;;;;;3.63;1.10;;;;;;;10.66;100.00;101023.28;5048674;28;20144;-84
2022/03/15 08:42:42;;;;;;;3.20;1.25;;;;;;;10.67;100.00;101014.72;5038547;28;20045;-82
2022/03/15 08:45:14;;;;;;;3.80;1.13;;;;;;;10.67;100.00;101014.72;5052725;28;20053;-80
2022/03/15 08:47:43;;;;;;;2.40;1.45;;;;;;;10.68;100.00;101013.88;5050745;28;20088;-82
2022/03/15 08:50:12;;;;;;;5.22;1.40;;;;;;;10.69;100.00;101012.16;5050357;28;20111;-81
2022/03/15 08:52:41;;;;;;;2.25;1.30;;;;;;;10.69;100.00;101012.16;5049728;28;20057;-82
2022/03/15 08:55:12;;;;;;;4.57;1.73;;;;;;;10.69;100.00;101012.16;5049876;28;20051;-82
2022/03/15 08:57:40;;;;;;;4.10;1.48;;;;;;;10.67;100.00;101019.88;5049992;28;20045;-81
2022/03/15 09:00:11;;;;;;;4.90;1.30;;;;;;;10.71;100.00;101031.19;5049368;28;20052;-81
2022/03/15 09:02:40;;;;;;;1.50;1.05;;;;;;;10.73;100.00;101024.38;5049639;28;20079;-82
2022/03/15 09:05:11;;;;;;;2.08;0.95;;;;;;;10.76;100.00;101033.94;5049556;28;20577;-81
2022/03/15 09:07:40;;;;;;;1.23;0.80;;;;;;;10.77;100.00;101015.00;5050008;28;20131;-81
2022/03/15 09:10:08;;;;;;;1.63;1.02;;;;;;;10.77;100.00;101030.53;5049717;28;20067;-80
2022/03/15 09:12:39;;;;;;;4.45;1.00;;;;;;;10.79;100.00;101023.69;5048903;28;20037;-85
2022/03/15 09:15:08;;;;;;;1.85;0.80;;;;;;;10.72;100.00;101032.06;5037047;28;20504;-81
2022/03/15 09:17:37;;;;;;;2.08;1.00;;;;;;;10.84;100.00;101045.44;5050050;28;20077;-81
2022/03/15 09:20:06;;;;;;;3.00;1.02;;;;;;;10.86;100.00;101051.56;5049457;28;20080;-80
2022/03/15 09:22:35;;;;;;;3.13;0.98;;;;;;;10.88;100.00;101055.94;5030720;28;20053;-83
2022/03/15 09:25:04;;;;;;;1.20;0.80;;;;;;;10.90;100.00;101063.75;5029293;28;20041;-80
2022/03/15 09:27:33;;;;;;;3.50;1.20;;;;;;;10.90;100.00;101074.09;5029898;28;20436;-81
2022/03/15 09:30:04;;;;;;;1.20;0.95;;;;;;;10.92;100.00;101072.44;5029373;28;20092;-81
2022/03/15 09:32:33;;;;;;;2.05;0.82;;;;;;;10.92;100.00;101067.25;5029131;28;20049;-81
2022/03/15 09:35:01;;;;;;;1.75;1.05;;;;;;;10.93;100.00;101071.63;5029297;28;20049;-82
2022/03/15 09:37:30;;;;;;;2.53;0.95;;;;;;;10.97;100.00;101086.44;5029221;28;20053;-81
2022/03/15 09:39:59;;;;;;;3.70;1.25;;;;;;;10.99;100.00;101094.25;5029560;28;20119;-79
2022/03/15 09:42:30;;;;;;;2.15;0.85;;;;;;;11.01;100.00;101103.81;4992550;28;20053;-80
2022/03/15 09:44:59;;;;;;;1.20;0.82;;;;;;;11.04;100.00;101106.53;4989606;28;20081;-81
2022/03/15 09:47:34;;;;;;;0.95;0.70;;;;;;;11.06;100.00;101110.06;4990717;28;20074;-81
2022/03/15 09:50:05;;;;;;;2.97;1.00;;;;;;;11.08;100.00;101121.31;4990214;28;20070;-80
2022/03/15 09:52:34;;;;;;;1.48;0.55;;;;;;;11.08;100.00;101112.66;5008469;28;20396;-81
2022/03/15 09:55:04;;;;;;;1.77;0.63;;;;;;;11.06;100.00;101106.56;5010849;28;20050;-80
2022/03/15 09:57:33;;;;;;;2.03;0.73;;;;;;;11.06;100.00;101115.22;5009553;28;20112;-83
2022/03/15 10:00:02;;;;;;;0.98;0.50;;;;;;;11.06;100.00;101115.22;5009393;28;20056;-82
2022/03/15 10:02:33;;;;;;;0.88;0.63;;;;;;;11.07;100.00;101127.34;5009316;28;20508;-81
2022/03/15 10:05:10;;;;;;;2.60;0.50;;;;;;;11.07;100.00;101123.88;5008697;28;20101;-81
2022/03/15 10:07:38;;;;;;;1.85;0.40;;;;;;;11.07;100.00;101118.69;5009082;28;20092;-83
2022/03/15 10:10:09;;;;;;;1.08;0.38;;;;;;;11.03;100.00;101111.66;4998120;28;20089;-79
2022/03/15 10:12:38;;;;;;;2.38;0.80;;;;;;;10.97;100.00;101112.34;5008481;28;20476;-83
2022/03/15 10:15:15;;;;;;;0.40;0.38;;;;;;;10.92;100.00;101113.88;5009389;28;20520;-80
2022/03/15 10:17:47;;;;;;;1.08;0.40;;;;;;;10.90;100.00;101116.44;5009272;28;20557;-83
2022/03/15 10:20:18;;;;;;;1.70;0.45;;;;;;;10.87;100.00;101111.13;5010279;28;20058;-82
2022/03/15 10:22:55;;;;;;;1.58;0.70;;;;;;;10.83;100.00;101116.13;5028062;28;20056;-80
2022/03/15 10:25:25;;;;;;;0.47;0.30;;;;;;;10.80;100.00;101113.47;5027733;28;20042;-82
2022/03/15 10:28:03;;;;;;;1.23;0.50;;;;;;;10.73;100.00;101107.19;5028358;28;20081;-81
2022/03/15 10:30:32;;;;;;;1.17;0.65;;;;;;;10.66;100.00;101100.91;5029143;28;20072;-82
2022/03/15 10:33:03;;;;;;;0.45;0.38;;;;;;;10.62;100.00;101104.22;5030577;28;20045;-81
2022/03/15 10:35:33;;;;;;;1.13;0.50;;;;;;;10.54;100.00;101105.69;5032899;28;20151;-81
2022/03/15 10:38:02;;;;;;;1.70;0.50;;;;;;;10.49;100.00;101102.06;5033983;28;20050;-81
2022/03/15 10:40:35;;;;;;;1.00;0.68;;;;;;;10.45;100.00;101110.53;5034723;28;20053;-82
2022/03/15 10:43:07;;;;;;;0.52;0.43;;;;;;;10.39;100.00;101113.75;5034850;28;20049;-81
2022/03/15 10:45:37;;;;;;;;;;;;;;;10.34;100.00;101117.03;5033596;28;20045;-79
2022/03/15 10:48:16;;;;;;;0.93;0.70;;;;;;;10.30;100.00;101126.38;5033295;28;19920;-85
2022/03/15 10:50:56;;;;;;;0.98;0.40;;;;;;;10.25;100.00;101133.91;5032785;28;20045;-81
2022/03/15 10:53:28;;;;;;;0.50;0.50;;;;;;;10.21;100.00;101131.16;5032120;28;20057;-80
2022/03/15 10:56:15;;;;;;;1.20;0.50;;;;;;;10.23;100.00;101145.03;5032572;28;20057;-80
2022/03/15 10:58:51;;;;;;;2.05;0.60;;;;;;;10.23;100.00;101151.09;5032912;28;20049;-81
2022/03/15 11:01:22;;;;;;;1.25;0.50;;;;;;;10.19;100.00;101150.91;5032227;28;20480;-80
2022/03/15 11:03:59;;;;;;;0.90;0.30;;;;;;;10.17;100.00;101144.78;5031701;28;20050;-81
2022/03/15 11:06:32;;;;;;;3.10;0.50;;;;;;;10.13;100.00;101141.22;5031962;28;20107;-82
2022/03/15 11:09:01;;;;;;;1.52;0.60;;;;;;;10.13;100.00;101156.75;5028966;28;20173;-84
2022/03/15 11:11:33;;;;;;;0.82;0.30;;;;;;;10.16;100.00;101168.91;5024609;28;20053;-80
2022/03/15 11:14:04;;;;;;;1.10;0.70;;;;;;;10.18;100.00;101187.94;5031670;28;20141;-80
2022/03/15 11:16:36;;;;;;;4.00;0.40;;;;;;;10.16;100.00;101180.13;5031623;28;20056;-81
2022/03/15 11:19:08;;;;;;;4.50;0.50;;;;;;;10.13;100.00;101174.84;5031208;28;20045;-80
2022/03/15 11:21:37;;;;;;;1.80;0.57;;;;;;;10.11;100.00;101176.50;5035231;28;20054;-83
2022/03/15 11:24:09;;;;;;;1.13;0.47;;;;;;;10.07;100.00;101172.03;5016239;28;20049;-79
2022/03/15 11:26:44;;;;;;;2.07;0.60;;;;;;;10.06;100.00;101183.19;5011961;28;20524;-79
2022/03/15 11:29:17;;;;;;;1.10;0.30;;;;;;;10.06;100.00;101184.06;5023085;28;20827;-80
2022/03/15 11:31:47;;;;;;;4.32;0.77;;;;;;;10.11;100.00;101183.38;5013313;28;20108;-79
2022/03/15 11:34:20;;;;;;;0.88;0.40;;;;;;;10.10;100.00;101200.59;5012050;28;20053;-79
2022/03/15 11:36:50;;;;;;;3.83;0.65;;;;;;;10.10;100.00;101205.78;5017661;28;20085;-81
2022/03/15 11:39:18;;;;;;;1.27;0.52;;;;;;;10.12;100.00;101211.84;5024906;28;20100;-83